createdAt,value
2023-01-29T00:00:27.000Z,17.7
2023-01-29T00:01:37.000Z,17.7
2023-01-29T00:02:47.201Z,17.7
2023-01-29T00:03:57.000Z,17.7
2023-01-29T00:05:07.000Z,17.7
2023-01-29T00:06:17.550Z,17.7
2023-01-29T00:07:27.663Z,17.7
2023-01-29T00:08:37.000Z,17.7
2023-01-29T00:09:47.000Z,17.7
2023-01-29T00:12:08.119Z,17.7
2023-01-29T00:13:18.000Z,17.7
2023-01-29T00:14:28.346Z,17.7
2023-01-29T00:15:38.464Z,17.7
2023-01-29T00:16:47.594Z,17.7
2023-01-29T00:17:57.000Z,17.7
2023-01-29T00:19:07.824Z,17.7
2023-01-29T00:20:17.000Z,17.7
2023-01-29T00:21:28.000Z,17.7
2023-01-29T00:22:38.178Z,17.7
2023-01-29T00:23:48.289Z,17.7
2023-01-29T00:24:57.000Z,17.7
2023-01-29T00:26:06.000Z,17.7
2023-01-29T00:27:15.000Z,17.6
2023-01-29T00:28:24.843Z,17.6
2023-01-29T00:29:33.982Z,17.7
2023-01-29T00:30:44.000Z,17.6
2023-01-29T00:31:53.000Z,17.6
2023-01-29T00:33:02.000Z,17.6
2023-01-29T00:34:12.499Z,17.7
2023-01-29T00:35:22.605Z,17.6
2023-01-29T00:36:32.731Z,17.6
2023-01-29T00:37:42.830Z,17.6
2023-01-29T00:38:52.000Z,17.6
2023-01-29T00:40:03.000Z,17.6
2023-01-29T00:41:13.177Z,17.6
2023-01-29T00:42:23.000Z,17.6
2023-01-29T00:43:33.000Z,17.6
2023-01-29T00:44:43.527Z,17.6
2023-01-29T00:45:53.000Z,17.6
2023-01-29T00:47:03.000Z,17.6
2023-01-29T00:48:12.000Z,17.6
2023-01-29T00:49:23.000Z,17.6
2023-01-29T00:50:33.120Z,17.6
2023-01-29T00:51:43.000Z,17.6
2023-01-29T00:52:53.000Z,17.6
2023-01-29T00:54:03.000Z,17.6
2023-01-29T00:55:13.000Z,17.6
2023-01-29T00:56:22.000Z,17.6
2023-01-29T00:57:31.861Z,17.6
2023-01-29T00:58:41.000Z,17.6
2023-01-29T00:59:52.091Z,17.6
2023-01-29T01:01:02.215Z,17.6
2023-01-29T01:02:12.000Z,17.6
2023-01-29T01:03:22.000Z,17.6
2023-01-29T01:04:32.000Z,17.6
2023-01-29T01:05:42.000Z,17.6
2023-01-29T01:06:52.789Z,17.6
2023-01-29T01:08:02.000Z,17.6
2023-01-29T01:09:13.000Z,17.6
2023-01-29T01:10:23.000Z,17.6
2023-01-29T01:11:33.252Z,17.6
2023-01-29T01:12:42.381Z,17.6
2023-01-29T01:13:52.501Z,17.6
2023-01-29T01:15:02.627Z,17.6
2023-01-29T01:16:12.000Z,17.6
2023-01-29T01:17:22.845Z,17.6
2023-01-29T01:18:32.000Z,17.6
2023-01-29T01:19:43.078Z,17.6
2023-01-29T01:20:52.000Z,17.6
2023-01-29T01:22:01.353Z,17.6
2023-01-29T01:23:10.000Z,17.6
2023-01-29T01:24:19.000Z,17.6
2023-01-29T01:25:28.000Z,17.6
2023-01-29T01:26:37.000Z,17.5
2023-01-29T01:27:48.023Z,17.6
2023-01-29T01:28:58.000Z,17.6
2023-01-29T01:30:08.000Z,17.6
2023-01-29T01:31:18.370Z,17.5
2023-01-29T01:32:28.482Z,17.5
2023-01-29T01:33:38.000Z,17.5
2023-01-29T01:34:48.000Z,17.5
2023-01-29T01:35:58.825Z,17.5
2023-01-29T01:37:08.000Z,17.5
2023-01-29T01:38:19.000Z,17.5
2023-01-29T01:39:29.000Z,17.5
2023-01-29T01:40:39.294Z,17.5
2023-01-29T01:41:48.422Z,17.5
2023-01-29T01:42:58.000Z,17.5
2023-01-29T01:44:08.000Z,17.5
2023-01-29T01:45:18.786Z,17.5
2023-01-29T01:46:28.000Z,17.5
2023-01-29T01:47:39.000Z,17.5
2023-01-29T01:48:49.000Z,17.5
2023-01-29T01:49:58.000Z,17.5
2023-01-29T01:51:07.000Z,17.5
2023-01-29T01:52:16.540Z,17.5
2023-01-29T01:53:25.000Z,17.5
2023-01-29T01:54:35.779Z,17.5
2023-01-29T01:55:45.000Z,17.5
2023-01-29T01:56:56.000Z,17.5
2023-01-29T01:58:06.126Z,17.5
2023-01-29T01:59:16.000Z,17.5
2023-01-29T02:00:26.000Z,17.5
2023-01-29T02:01:36.000Z,17.5
2023-01-29T02:02:46.000Z,17.5
2023-01-29T02:03:56.717Z,17.5
2023-01-29T02:05:06.000Z,17.5
2023-01-29T02:06:16.000Z,17.5
2023-01-29T02:07:27.000Z,17.5
2023-01-29T02:08:36.000Z,17.5
2023-01-29T02:09:46.000Z,17.5
2023-01-29T02:10:56.000Z,17.5
2023-01-29T02:12:06.533Z,17.5
2023-01-29T02:13:16.000Z,17.5
2023-01-29T02:14:26.000Z,17.5
2023-01-29T02:15:36.000Z,17.5
2023-01-29T02:16:46.022Z,17.5
2023-01-29T02:17:55.154Z,17.5
2023-01-29T02:19:04.000Z,17.5
2023-01-29T02:20:13.436Z,17.5
2023-01-29T02:21:23.553Z,17.5
2023-01-29T02:22:33.000Z,17.5
2023-01-29T02:23:43.779Z,17.5
2023-01-29T02:24:53.893Z,17.5
2023-01-29T02:26:04.000Z,17.5
2023-01-29T02:27:14.125Z,17.5
2023-01-29T02:28:24.000Z,17.5
2023-01-29T02:29:34.000Z,17.5
2023-01-29T02:30:44.000Z,17.5
2023-01-29T02:31:54.000Z,17.5
2023-01-29T02:33:04.000Z,17.5
2023-01-29T02:34:14.000Z,17.5
2023-01-29T02:35:23.000Z,17.5
2023-01-29T02:36:34.000Z,17.5
2023-01-29T02:37:44.188Z,17.5
2023-01-29T02:38:54.000Z,17.5
2023-01-29T02:40:04.000Z,17.5
2023-01-29T02:41:14.000Z,17.5
2023-01-29T02:42:24.000Z,17.5
2023-01-29T02:43:33.000Z,17.4
2023-01-29T02:44:42.000Z,17.5
2023-01-29T02:45:52.068Z,17.5
2023-01-29T02:47:01.201Z,17.4
2023-01-29T02:48:11.000Z,17.5
2023-01-29T02:49:21.433Z,17.5
2023-01-29T02:50:31.554Z,17.4
2023-01-29T02:51:41.661Z,17.4
2023-01-29T02:52:51.000Z,17.4
2023-01-29T02:54:01.890Z,17.4
2023-01-29T02:55:12.000Z,17.4
2023-01-29T02:56:22.000Z,17.4
2023-01-29T02:57:32.000Z,17.4
2023-01-29T02:58:42.000Z,17.4
2023-01-29T02:59:52.000Z,17.4
2023-01-29T03:01:02.000Z,17.4
2023-01-29T03:02:11.000Z,17.4
2023-01-29T03:03:21.837Z,17.4
2023-01-29T03:04:31.000Z,17.4
2023-01-29T03:05:42.072Z,17.4
2023-01-29T03:06:52.000Z,17.4
2023-01-29T03:08:02.000Z,17.4
2023-01-29T03:09:12.414Z,17.4
2023-01-29T03:10:21.000Z,17.4
2023-01-29T03:11:30.000Z,17.4
2023-01-29T03:12:40.000Z,17.4
2023-01-29T03:13:49.000Z,17.4
2023-01-29T03:14:59.000Z,17.4
2023-01-29T03:16:09.197Z,17.4
2023-01-29T03:17:19.314Z,17.4
2023-01-29T03:18:29.000Z,17.4
2023-01-29T03:19:39.540Z,17.4
2023-01-29T03:20:49.659Z,17.4
2023-01-29T03:21:59.771Z,17.4
2023-01-29T03:23:09.894Z,17.4
2023-01-29T03:24:20.000Z,17.4
2023-01-29T03:25:30.122Z,17.4
2023-01-29T03:26:40.238Z,17.4
2023-01-29T03:27:50.000Z,17.4
2023-01-29T03:29:00.000Z,17.4
2023-01-29T03:30:09.000Z,17.4
2023-01-29T03:31:19.000Z,17.4
2023-01-29T03:32:29.000Z,17.4
2023-01-29T03:33:39.000Z,17.4
2023-01-29T03:34:50.000Z,17.4
2023-01-29T03:36:00.000Z,17.4
2023-01-29T03:37:10.000Z,17.4
2023-01-29T03:38:19.444Z,17.4
2023-01-29T03:39:28.000Z,17.4
2023-01-29T03:40:37.724Z,17.4
2023-01-29T03:41:46.000Z,17.4
2023-01-29T03:42:56.000Z,17.4
2023-01-29T03:44:07.000Z,17.4
2023-01-29T03:45:17.201Z,17.4
2023-01-29T03:46:27.000Z,17.4
2023-01-29T03:47:37.000Z,17.4
2023-01-29T03:48:47.536Z,17.4
2023-01-29T03:49:57.663Z,17.4
2023-01-29T03:51:07.770Z,17.4
2023-01-29T03:52:17.000Z,17.4
2023-01-29T03:53:27.999Z,17.4
2023-01-29T03:54:38.000Z,17.4
2023-01-29T03:55:48.237Z,17.4
2023-01-29T03:56:57.000Z,17.4
2023-01-29T03:58:07.000Z,17.4
2023-01-29T03:59:17.000Z,17.4
2023-01-29T04:00:27.000Z,17.4
2023-01-29T04:01:37.000Z,17.4
2023-01-29T04:02:47.955Z,17.4
2023-01-29T04:03:58.000Z,17.4
2023-01-29T04:05:07.000Z,17.4
2023-01-29T04:06:16.000Z,17.3
2023-01-29T04:07:26.000Z,17.3
2023-01-29T04:08:35.000Z,17.4
2023-01-29T04:09:44.722Z,17.3
2023-01-29T04:10:54.000Z,17.3
2023-01-29T04:12:04.000Z,17.3
2023-01-29T04:13:15.000Z,17.4
2023-01-29T04:14:25.188Z,17.3
2023-01-29T04:15:35.000Z,17.3
2023-01-29T04:16:45.000Z,17.3
2023-01-29T04:17:55.000Z,17.3
2023-01-29T04:19:04.670Z,17.3
2023-01-29T04:20:14.798Z,17.3
2023-01-29T04:21:24.905Z,17.3
2023-01-29T04:22:35.000Z,17.3
2023-01-29T04:23:45.142Z,17.3
2023-01-29T04:24:55.000Z,17.3
2023-01-29T04:26:05.000Z,17.3
2023-01-29T04:27:15.000Z,17.3
2023-01-29T04:28:25.000Z,17.3
2023-01-29T04:29:35.000Z,17.3
2023-01-29T04:30:45.838Z,17.3
2023-01-29T04:31:55.000Z,17.3
2023-01-29T04:33:05.000Z,17.3
2023-01-29T04:34:14.000Z,17.3
2023-01-29T04:35:24.000Z,17.3
2023-01-29T04:36:33.000Z,17.3
2023-01-29T04:37:42.610Z,17.3
2023-01-29T04:38:52.741Z,17.3
2023-01-29T04:40:02.869Z,17.3
2023-01-29T04:41:12.957Z,17.3
2023-01-29T04:42:23.000Z,17.3
2023-01-29T04:43:33.000Z,17.3
2023-01-29T04:44:43.000Z,17.3
2023-01-29T04:45:53.421Z,17.3
2023-01-29T04:47:03.537Z,17.3
2023-01-29T04:48:13.651Z,17.3
2023-01-29T04:49:23.000Z,17.3
2023-01-29T04:50:33.887Z,17.3
2023-01-29T04:51:44.000Z,17.3
2023-01-29T04:52:53.137Z,17.3
2023-01-29T04:54:03.000Z,17.3
2023-01-29T04:55:13.369Z,17.3
2023-01-29T04:56:23.486Z,17.3
2023-01-29T04:57:33.000Z,17.3
2023-01-29T04:58:43.000Z,17.3
2023-01-29T04:59:53.000Z,17.3
2023-01-29T05:01:02.000Z,17.3
2023-01-29T05:02:12.000Z,17.3
2023-01-29T05:03:22.000Z,17.3
2023-01-29T05:04:31.000Z,17.3
2023-01-29T05:05:40.000Z,17.3
2023-01-29T05:06:50.000Z,17.3
2023-01-29T05:08:00.000Z,17.3
2023-01-29T05:09:10.000Z,17.3
2023-01-29T05:10:20.955Z,17.3
2023-01-29T05:11:31.000Z,17.3
2023-01-29T05:12:41.188Z,17.3
2023-01-29T05:13:51.000Z,17.3
2023-01-29T05:15:01.000Z,17.3
2023-01-29T05:16:11.000Z,17.3
2023-01-29T05:17:21.000Z,17.3
2023-01-29T05:18:31.767Z,17.3
2023-01-29T05:19:41.000Z,17.3
2023-01-29T05:20:51.000Z,17.3
2023-01-29T05:22:01.000Z,17.3
2023-01-29T05:23:11.244Z,17.2
2023-01-29T05:24:21.000Z,17.2
2023-01-29T05:25:31.000Z,17.3
2023-01-29T05:26:41.000Z,17.2
2023-01-29T05:27:51.000Z,17.2
2023-01-29T05:29:00.000Z,17.3
2023-01-29T05:30:09.000Z,17.2
2023-01-29T05:31:20.000Z,17.2
2023-01-29T05:32:30.217Z,17.2
2023-01-29T05:33:39.000Z,17.2
2023-01-29T05:34:48.492Z,17.2
2023-01-29T05:35:58.000Z,17.2
2023-01-29T05:37:08.737Z,17.2
2023-01-29T05:38:18.000Z,17.2
2023-01-29T05:39:28.955Z,17.2
2023-01-29T05:40:39.073Z,17.2
2023-01-29T05:41:49.000Z,17.2
2023-01-29T05:42:59.000Z,17.2
2023-01-29T05:44:09.000Z,17.2
2023-01-29T05:45:19.539Z,17.2
2023-01-29T05:46:29.663Z,17.2
2023-01-29T05:47:39.774Z,17.2
2023-01-29T05:48:49.882Z,17.2
2023-01-29T05:50:00.007Z,17.2
2023-01-29T05:51:09.000Z,17.2
2023-01-29T05:52:19.000Z,17.2
2023-01-29T05:53:29.000Z,17.2
2023-01-29T05:54:39.000Z,17.2
2023-01-29T05:55:49.000Z,17.2
2023-01-29T05:56:59.000Z,17.2
2023-01-29T05:58:08.000Z,17.2
2023-01-29T05:59:17.000Z,17.2
2023-01-29T06:00:27.000Z,17.2
2023-01-29T06:01:37.244Z,17.2
2023-01-29T06:02:46.376Z,17.2
2023-01-29T06:03:56.000Z,17.2
2023-01-29T06:05:06.000Z,17.2
2023-01-29T06:06:16.000Z,17.2
2023-01-29T06:07:26.000Z,17.2
2023-01-29T06:08:36.000Z,17.2
2023-01-29T06:09:47.068Z,17.2
2023-01-29T06:10:57.000Z,17.2
2023-01-29T06:12:07.000Z,17.2
2023-01-29T06:13:17.000Z,17.2
2023-01-29T06:14:27.000Z,17.2
2023-01-29T06:15:37.647Z,17.2
2023-01-29T06:16:47.000Z,17.2
2023-01-29T06:17:56.000Z,17.2
2023-01-29T06:19:07.000Z,17.2
2023-01-29T06:20:17.000Z,17.2
2023-01-29T06:21:27.245Z,17.2
2023-01-29T06:22:37.366Z,17.2
2023-01-29T06:23:47.000Z,17.2
2023-01-29T06:24:56.000Z,17.2
2023-01-29T06:26:05.000Z,17.2
2023-01-29T06:27:15.000Z,17.2
2023-01-29T06:28:25.008Z,17.2
2023-01-29T06:29:34.000Z,17.2
2023-01-29T06:30:44.000Z,17.2
2023-01-29T06:31:54.372Z,17.1
2023-01-29T06:33:04.492Z,17.2
2023-01-29T06:34:14.000Z,17.2
2023-01-29T06:35:24.000Z,17.2
2023-01-29T06:36:34.837Z,17.1
2023-01-29T06:37:44.951Z,17.2
2023-01-29T06:38:55.000Z,17.2
2023-01-29T06:40:05.000Z,17.1
2023-01-29T06:41:15.308Z,17.1
2023-01-29T06:42:25.000Z,17.1
2023-01-29T06:43:35.537Z,17.1
2023-01-29T06:44:44.000Z,17.1
2023-01-29T06:45:54.000Z,17.1
2023-01-29T06:47:04.000Z,17.1
2023-01-29T06:48:15.016Z,17.1
2023-01-29T06:49:25.000Z,17.1
2023-01-29T06:50:35.000Z,17.1
2023-01-29T06:51:45.000Z,17.1
2023-01-29T06:52:54.500Z,17.1
2023-01-29T06:54:03.000Z,17.1
2023-01-29T06:55:13.746Z,17.1
2023-01-29T06:56:23.000Z,17.1
2023-01-29T06:57:33.000Z,17.1
2023-01-29T06:58:44.095Z,17.1
2023-01-29T06:59:54.000Z,17.1
2023-01-29T07:01:04.331Z,17.1
2023-01-29T07:02:14.000Z,17.1
2023-01-29T07:03:24.574Z,17.1
2023-01-29T07:04:34.675Z,17.1
2023-01-29T07:05:44.000Z,17.1
2023-01-29T07:06:54.000Z,17.1
2023-01-29T07:08:05.000Z,17.1
2023-01-29T07:09:14.000Z,17.1
2023-01-29T07:10:24.269Z,17.1
2023-01-29T07:11:34.000Z,17.1
2023-01-29T07:12:44.000Z,17.1
2023-01-29T07:13:54.619Z,17.1
2023-01-29T07:15:04.000Z,17.1
2023-01-29T07:16:14.000Z,17.1
2023-01-29T07:17:23.993Z,17.1
2023-01-29T07:18:33.131Z,17.1
2023-01-29T07:19:42.000Z,17.1
2023-01-29T07:20:51.000Z,17.1
2023-01-29T07:22:00.000Z,17.1
2023-01-29T07:23:09.000Z,17.1
2023-01-29T07:24:19.000Z,17.1
2023-01-29T07:25:29.000Z,17.1
2023-01-29T07:26:40.000Z,17.1
2023-01-29T07:27:50.000Z,17.1
2023-01-29T07:29:00.000Z,17.1
2023-01-29T07:30:10.000Z,17.1
2023-01-29T07:31:20.486Z,17.1
2023-01-29T07:32:30.605Z,17.1
2023-01-29T07:33:40.000Z,17.1
2023-01-29T07:34:50.000Z,17.1
2023-01-29T07:36:00.000Z,17.1
2023-01-29T07:37:11.000Z,17.1
2023-01-29T07:38:20.201Z,17.1
2023-01-29T07:39:30.345Z,17.1
2023-01-29T07:40:40.429Z,17.1
2023-01-29T07:41:50.000Z,17.1
2023-01-29T07:43:00.000Z,17.1
2023-01-29T07:44:10.000Z,17.1
2023-01-29T07:45:20.000Z,17.1
2023-01-29T07:46:30.000Z,17.1
2023-01-29T07:47:39.000Z,17.1
2023-01-29T07:48:49.000Z,17.1
2023-01-29T07:49:58.000Z,17.1
2023-01-29T07:51:07.000Z,17.1
2023-01-29T07:52:17.680Z,17.1
2023-01-29T07:53:27.789Z,17.1
2023-01-29T07:54:37.000Z,17.1
2023-01-29T07:55:48.026Z,17
2023-01-29T07:56:58.000Z,17.1
2023-01-29T07:58:08.000Z,17
2023-01-29T07:59:18.000Z,17
2023-01-29T08:00:28.000Z,17
2023-01-29T08:01:38.000Z,17
2023-01-29T08:02:48.000Z,17
2023-01-29T08:03:58.000Z,17
2023-01-29T08:05:08.945Z,17
2023-01-29T08:06:18.096Z,17
2023-01-29T08:07:28.000Z,17
2023-01-29T08:08:38.000Z,17
2023-01-29T08:09:48.000Z,17
2023-01-29T08:10:58.000Z,17
2023-01-29T08:12:08.000Z,17
2023-01-29T08:13:17.000Z,17
2023-01-29T08:14:26.000Z,17
2023-01-29T08:15:36.000Z,17
2023-01-29T08:16:46.186Z,17
2023-01-29T08:17:56.000Z,17
2023-01-29T08:19:06.417Z,17
2023-01-29T08:20:16.000Z,17
2023-01-29T08:21:26.000Z,17
2023-01-29T08:22:36.766Z,17
2023-01-29T08:23:46.887Z,17
2023-01-29T08:24:56.000Z,17
2023-01-29T08:26:07.000Z,17
2023-01-29T08:27:17.000Z,17
2023-01-29T08:28:27.344Z,17
2023-01-29T08:29:37.000Z,17
2023-01-29T08:30:46.592Z,17
2023-01-29T08:31:56.000Z,17
2023-01-29T08:33:06.000Z,17
2023-01-29T08:34:16.000Z,17
2023-01-29T08:35:27.000Z,17
2023-01-29T08:36:37.000Z,17
2023-01-29T08:37:47.000Z,17
2023-01-29T08:38:56.430Z,17
2023-01-29T08:40:05.000Z,17
2023-01-29T08:41:14.000Z,17
2023-01-29T08:42:23.841Z,17
2023-01-29T08:43:32.984Z,17
2023-01-29T08:44:42.000Z,17
2023-01-29T08:45:52.000Z,17
2023-01-29T08:47:02.000Z,17
2023-01-29T08:48:12.000Z,17
2023-01-29T08:49:22.000Z,17
2023-01-29T08:50:32.000Z,17
2023-01-29T08:51:42.000Z,17
2023-01-29T08:52:52.000Z,17
2023-01-29T08:54:03.000Z,17
2023-01-29T08:55:13.000Z,17
2023-01-29T08:56:23.000Z,17
2023-01-29T08:57:33.386Z,17
2023-01-29T08:58:43.000Z,17
2023-01-29T08:59:52.632Z,17
2023-01-29T09:01:02.000Z,17
2023-01-29T09:02:12.000Z,17
2023-01-29T09:03:22.979Z,17
2023-01-29T09:04:33.000Z,17
2023-01-29T09:05:43.000Z,17
2023-01-29T09:06:53.000Z,17
2023-01-29T09:08:02.000Z,17
2023-01-29T09:09:11.607Z,17
2023-01-29T09:10:20.750Z,17
2023-01-29T09:11:29.000Z,17
2023-01-29T09:12:39.000Z,17
2023-01-29T09:13:50.000Z,17
2023-01-29T09:15:00.224Z,17
2023-01-29T09:16:10.341Z,17
2023-01-29T09:17:20.466Z,16.9
2023-01-29T09:18:30.000Z,17
2023-01-29T09:19:40.000Z,17
2023-01-29T09:20:50.812Z,17
2023-01-29T09:22:00.923Z,17
2023-01-29T09:23:11.040Z,16.9
2023-01-29T09:24:21.000Z,17
2023-01-29T09:25:31.266Z,16.9
2023-01-29T09:26:40.000Z,17
2023-01-29T09:27:50.000Z,16.9
2023-01-29T09:29:00.647Z,16.9
2023-01-29T09:30:10.753Z,16.9
2023-01-29T09:31:20.000Z,16.9
2023-01-29T09:32:30.983Z,16.9
2023-01-29T09:33:41.000Z,16.9
2023-01-29T09:34:50.000Z,16.9
2023-01-29T09:35:59.368Z,16.9
2023-01-29T09:37:09.000Z,16.9
2023-01-29T09:38:18.626Z,16.9
2023-01-29T09:39:28.744Z,16.9
2023-01-29T09:40:37.000Z,16.9
2023-01-29T09:41:47.000Z,17
2023-01-29T09:42:58.000Z,16.9
2023-01-29T09:44:08.222Z,16.9
2023-01-29T09:45:18.338Z,16.9
2023-01-29T09:46:28.000Z,16.9
2023-01-29T09:47:38.576Z,16.9
2023-01-29T09:48:48.000Z,16.9
2023-01-29T09:49:58.000Z,16.9
2023-01-29T09:51:08.000Z,16.9
2023-01-29T09:52:19.000Z,16.9
2023-01-29T09:53:29.000Z,16.9
2023-01-29T09:54:39.000Z,16.9
2023-01-29T09:55:48.000Z,16.9
2023-01-29T09:56:58.000Z,16.9
2023-01-29T09:58:08.625Z,16.9
2023-01-29T09:59:18.744Z,16.9
2023-01-29T10:00:28.859Z,16.9
2023-01-29T10:01:38.000Z,16.9
2023-01-29T10:02:48.116Z,16.9
2023-01-29T10:03:57.000Z,16.9
2023-01-29T10:05:07.000Z,16.9
2023-01-29T10:06:17.481Z,16.9
2023-01-29T10:07:27.000Z,16.9
2023-01-29T10:08:37.711Z,16.9
2023-01-29T10:09:47.000Z,16.9
2023-01-29T10:10:57.944Z,16.9
2023-01-29T10:12:08.000Z,16.9
2023-01-29T10:13:18.175Z,16.9
2023-01-29T10:14:28.000Z,16.9
2023-01-29T10:15:38.000Z,16.9
2023-01-29T10:16:48.522Z,16.9
2023-01-29T10:17:58.000Z,16.9
2023-01-29T10:19:07.778Z,16.9
2023-01-29T10:20:17.000Z,16.9
2023-01-29T10:21:28.001Z,16.9
2023-01-29T10:22:38.115Z,16.9
2023-01-29T10:23:48.000Z,16.9
2023-01-29T10:24:58.349Z,16.9
2023-01-29T10:26:08.000Z,16.9
2023-01-29T10:27:17.000Z,16.9
2023-01-29T10:28:26.000Z,16.9
2023-01-29T10:29:35.000Z,16.9
2023-01-29T10:30:45.000Z,16.9
2023-01-29T10:31:55.135Z,16.9
2023-01-29T10:33:04.000Z,16.9
2023-01-29T10:34:13.000Z,16.9
2023-01-29T10:35:23.000Z,16.9
2023-01-29T10:36:33.000Z,16.9
2023-01-29T10:37:43.749Z,16.9
2023-01-29T10:38:53.000Z,16.9
2023-01-29T10:40:03.000Z,16.9
2023-01-29T10:41:14.000Z,16.9
2023-01-29T10:42:24.000Z,16.9
2023-01-29T10:43:34.000Z,16.9
2023-01-29T10:44:44.000Z,16.9
2023-01-29T10:45:54.000Z,16.9
2023-01-29T10:47:04.678Z,16.9
2023-01-29T10:48:14.794Z,16.9
2023-01-29T10:49:24.000Z,16.9
2023-01-29T10:50:34.000Z,16.9
2023-01-29T10:51:44.000Z,16.9
2023-01-29T10:52:54.000Z,16.9
2023-01-29T10:54:04.000Z,16.9
2023-01-29T10:55:14.000Z,16.9
2023-01-29T10:56:24.000Z,16.9
2023-01-29T10:57:33.000Z,16.9
2023-01-29T10:58:42.000Z,16.9
2023-01-29T10:59:53.000Z,16.9
2023-01-29T11:01:02.150Z,16.9
2023-01-29T11:02:11.000Z,16.9
2023-01-29T11:03:21.000Z,16.9
2023-01-29T11:04:31.000Z,16.9
2023-01-29T11:05:41.630Z,16.9
2023-01-29T11:06:51.000Z,16.9
2023-01-29T11:08:01.000Z,16.9
2023-01-29T11:09:11.000Z,16.9
2023-01-29T11:10:22.000Z,16.9
2023-01-29T11:11:32.208Z,16.9
2023-01-29T11:12:42.000Z,16.9
2023-01-29T11:13:52.000Z,16.9
2023-01-29T11:15:02.000Z,16.9
2023-01-29T11:16:12.000Z,16.9
2023-01-29T11:17:21.000Z,16.9
2023-01-29T11:18:31.934Z,16.9
2023-01-29T11:19:42.000Z,16.9
2023-01-29T11:20:52.000Z,16.9
2023-01-29T11:22:02.000Z,16.9
2023-01-29T11:23:12.000Z,16.9
2023-01-29T11:24:22.000Z,16.9
2023-01-29T11:25:31.000Z,16.9
2023-01-29T11:26:40.000Z,16.9
2023-01-29T11:27:50.000Z,16.9
2023-01-29T11:29:00.000Z,16.9
2023-01-29T11:30:10.000Z,16.9
2023-01-29T11:31:19.285Z,16.9
2023-01-29T11:32:29.394Z,16.9
2023-01-29T11:33:39.510Z,16.9
2023-01-29T11:34:49.000Z,16.9
2023-01-29T11:35:59.000Z,16.9
2023-01-29T11:37:09.000Z,16.9
2023-01-29T11:38:19.000Z,16.9
2023-01-29T11:39:30.098Z,16.9
2023-01-29T11:40:40.000Z,16.9
2023-01-29T11:41:50.000Z,16.9
2023-01-29T11:43:00.000Z,16.9
2023-01-29T11:44:10.559Z,16.9
2023-01-29T11:45:20.670Z,16.9
2023-01-29T11:46:29.000Z,16.9
2023-01-29T11:47:39.000Z,16.9
2023-01-29T11:48:50.033Z,16.9
2023-01-29T11:50:00.157Z,16.9
2023-01-29T11:51:10.271Z,16.9
2023-01-29T11:52:20.391Z,16.9
2023-01-29T11:53:29.000Z,16.9
2023-01-29T11:54:38.655Z,16.8
2023-01-29T11:55:48.000Z,16.9
2023-01-29T11:56:58.000Z,16.9
2023-01-29T11:58:08.000Z,16.8
2023-01-29T11:59:17.000Z,16.9
2023-01-29T12:00:27.000Z,16.8
2023-01-29T12:01:37.000Z,16.9
2023-01-29T12:02:47.000Z,16.9
2023-01-29T12:03:57.000Z,16.9
2023-01-29T12:05:07.000Z,16.8
2023-01-29T12:06:17.000Z,16.8
2023-01-29T12:07:26.000Z,16.8
2023-01-29T12:08:37.000Z,16.9
2023-01-29T12:09:47.000Z,16.9
2023-01-29T12:10:57.000Z,16.9
2023-01-29T12:12:07.466Z,16.9
2023-01-29T12:13:17.000Z,16.8
2023-01-29T12:14:27.694Z,16.8
2023-01-29T12:15:37.815Z,16.8
2023-01-29T12:16:47.000Z,16.8
2023-01-29T12:17:58.000Z,16.9
2023-01-29T12:19:08.000Z,16.8
2023-01-29T12:20:18.000Z,16.8
2023-01-29T12:21:28.000Z,16.8
2023-01-29T12:22:37.000Z,16.8
2023-01-29T12:23:46.000Z,16.8
2023-01-29T12:24:55.000Z,16.8
2023-01-29T12:26:04.000Z,16.8
2023-01-29T12:27:15.000Z,16.8
2023-01-29T12:28:25.165Z,16.8
2023-01-29T12:29:35.000Z,16.8
2023-01-29T12:30:45.000Z,16.8
2023-01-29T12:31:55.510Z,16.8
2023-01-29T12:33:05.000Z,16.8
2023-01-29T12:34:15.000Z,16.8
2023-01-29T12:35:25.863Z,16.8
2023-01-29T12:36:35.975Z,16.8
2023-01-29T12:37:46.000Z,16.8
2023-01-29T12:38:56.000Z,16.8
2023-01-29T12:40:06.000Z,16.8
2023-01-29T12:41:15.000Z,16.8
2023-01-29T12:42:25.573Z,16.8
2023-01-29T12:43:35.000Z,16.8
2023-01-29T12:44:45.000Z,16.8
2023-01-29T12:45:55.927Z,16.8
2023-01-29T12:47:06.040Z,16.8
2023-01-29T12:48:16.000Z,16.8
2023-01-29T12:49:26.271Z,16.8
2023-01-29T12:50:35.000Z,16.8
2023-01-29T12:51:44.000Z,16.8
2023-01-29T12:52:53.682Z,16.8
2023-01-29T12:54:02.000Z,16.8
2023-01-29T12:55:12.930Z,16.8
2023-01-29T12:56:23.000Z,16.8
2023-01-29T12:57:33.162Z,16.8
2023-01-29T12:58:43.000Z,16.8
2023-01-29T13:01:03.000Z,16.8
2023-01-29T13:02:13.000Z,16.8
2023-01-29T13:03:23.000Z,16.8
2023-01-29T13:04:33.853Z,16.8
2023-01-29T13:05:43.000Z,16.8
2023-01-29T13:06:54.000Z,16.8
2023-01-29T13:08:04.000Z,16.8
2023-01-29T13:09:13.334Z,16.8
2023-01-29T13:10:23.000Z,16.8
2023-01-29T13:11:33.000Z,16.8
2023-01-29T13:12:43.000Z,16.8
2023-01-29T13:13:53.804Z,16.8
2023-01-29T13:15:03.000Z,16.8
2023-01-29T13:16:14.000Z,16.8
2023-01-29T13:17:24.151Z,16.8
2023-01-29T13:18:33.000Z,16.8
2023-01-29T13:19:42.000Z,16.8
2023-01-29T13:20:51.000Z,16.8
2023-01-29T13:22:00.000Z,16.8
2023-01-29T13:23:10.000Z,16.8
2023-01-29T13:24:20.935Z,16.8
2023-01-29T13:25:31.000Z,16.8
2023-01-29T13:26:41.000Z,16.8
2023-01-29T13:27:51.000Z,16.8
2023-01-29T13:29:01.000Z,16.7
2023-01-29T13:30:11.000Z,16.8
2023-01-29T13:31:21.000Z,16.8
2023-01-29T13:32:31.000Z,16.7
2023-01-29T13:33:41.000Z,16.8
2023-01-29T13:34:51.967Z,16.8
2023-01-29T13:36:02.000Z,16.8
2023-01-29T13:37:11.000Z,16.8
2023-01-29T13:38:21.000Z,16.8
2023-01-29T13:39:31.000Z,16.8
2023-01-29T13:40:41.000Z,16.8
2023-01-29T13:41:51.000Z,16.7
2023-01-29T13:43:01.811Z,16.7
2023-01-29T13:44:11.000Z,16.7
2023-01-29T13:45:21.000Z,16.8
2023-01-29T13:46:31.000Z,16.7
2023-01-29T13:47:40.000Z,16.7
2023-01-29T13:48:50.419Z,16.8
2023-01-29T13:49:59.000Z,16.7
2023-01-29T13:51:08.000Z,16.7
2023-01-29T13:52:18.000Z,16.7
2023-01-29T13:53:28.000Z,16.7
2023-01-29T13:54:39.000Z,16.7
2023-01-29T13:55:49.153Z,16.7
2023-01-29T13:56:59.000Z,16.7
2023-01-29T13:58:09.000Z,16.7
2023-01-29T13:59:19.000Z,16.7
2023-01-29T14:00:29.000Z,16.7
2023-01-29T14:01:39.000Z,16.7
2023-01-29T14:02:49.000Z,16.7
2023-01-29T14:03:59.000Z,16.7
2023-01-29T14:05:10.085Z,16.7
2023-01-29T14:06:19.000Z,16.7
2023-01-29T14:07:29.327Z,16.7
2023-01-29T14:08:39.000Z,16.7
2023-01-29T14:09:49.000Z,16.7
2023-01-29T14:10:59.000Z,16.7
2023-01-29T14:12:09.795Z,16.7
2023-01-29T14:13:19.000Z,16.7
2023-01-29T14:14:29.000Z,16.7
2023-01-29T14:15:38.000Z,16.7
2023-01-29T14:16:48.306Z,16.7
2023-01-29T14:17:57.000Z,16.7
2023-01-29T14:19:07.000Z,16.7
2023-01-29T14:20:16.688Z,16.7
2023-01-29T14:21:26.801Z,16.7
2023-01-29T14:22:36.920Z,16.7
2023-01-29T14:23:47.000Z,16.7
2023-01-29T14:24:57.000Z,16.7
2023-01-29T14:26:07.265Z,16.7
2023-01-29T14:27:17.000Z,16.7
2023-01-29T14:28:27.000Z,16.7
2023-01-29T14:29:37.000Z,16.7
2023-01-29T14:30:47.730Z,16.7
2023-01-29T14:31:57.842Z,16.7
2023-01-29T14:33:07.000Z,16.7
2023-01-29T14:34:18.079Z,16.7
2023-01-29T14:35:27.000Z,16.7
2023-01-29T14:36:37.326Z,16.7
2023-01-29T14:37:47.439Z,16.7
2023-01-29T14:38:57.000Z,16.7
2023-01-29T14:40:07.000Z,16.7
2023-01-29T14:41:17.000Z,16.7
2023-01-29T14:42:26.927Z,16.7
2023-01-29T14:43:36.000Z,16.7
2023-01-29T14:44:45.203Z,16.7
2023-01-29T14:45:54.334Z,16.7
2023-01-29T14:47:04.000Z,16.7
2023-01-29T14:48:14.000Z,16.7
2023-01-29T14:49:24.000Z,16.7
2023-01-29T14:50:34.000Z,16.7
2023-01-29T14:51:44.922Z,16.7
2023-01-29T14:52:55.030Z,16.7
2023-01-29T14:54:05.000Z,16.7
2023-01-29T14:55:15.267Z,16.7
2023-01-29T14:56:25.000Z,16.7
2023-01-29T14:57:35.000Z,16.7
2023-01-29T14:58:45.000Z,16.7
2023-01-29T14:59:55.000Z,16.7
2023-01-29T15:01:04.000Z,16.7
2023-01-29T15:02:14.000Z,16.7
2023-01-29T15:03:25.000Z,16.7
2023-01-29T15:04:35.000Z,16.7
2023-01-29T15:05:45.325Z,16.7
2023-01-29T15:06:55.000Z,16.7
2023-01-29T15:08:05.000Z,16.7
2023-01-29T15:09:14.000Z,16.7
2023-01-29T15:10:23.000Z,16.7
2023-01-29T15:11:33.000Z,16.7
2023-01-29T15:12:44.000Z,16.7
2023-01-29T15:13:54.173Z,16.7
2023-01-29T15:15:04.000Z,16.7
2023-01-29T15:16:14.000Z,16.7
2023-01-29T15:17:24.000Z,16.7
2023-01-29T15:18:34.654Z,16.7
2023-01-29T15:19:44.752Z,16.7
2023-01-29T15:20:54.000Z,16.7
2023-01-29T15:22:04.984Z,16.7
2023-01-29T15:23:15.000Z,16.6
2023-01-29T15:24:25.000Z,16.7
2023-01-29T15:25:34.000Z,16.7
2023-01-29T15:26:44.000Z,16.7
2023-01-29T15:27:54.581Z,16.7
2023-01-29T15:29:04.000Z,16.6
2023-01-29T15:30:14.000Z,16.6
2023-01-29T15:31:24.932Z,16.6
2023-01-29T15:32:35.000Z,16.6
2023-01-29T15:33:44.000Z,16.6
2023-01-29T15:34:53.322Z,16.6
2023-01-29T15:36:02.000Z,16.6
2023-01-29T15:37:12.000Z,16.6
2023-01-29T15:38:21.000Z,16.6